Airfield :
LOGIN :

Register | Disclaimer

   EN    FR    IT 

 










Legend :    VFR   Marginal VFR   IFR   Intensive IFR   Very Intensive IFR
Visi :
Ceiling :
>= 8 km
>= 3000ft
5 to 8 km
1000 to 3000 ft
1500m to 5 km
500 to 1000 ft
800 to 1500m
200 to 500 ft
< 800m
< 200 ft
Symbols :   Thunderstorms  Fog  Heavy snow  Heavy precipitations  Wind > 20 kt
SIGMETs :     Misc.  Thunderstorms  Icing  Turbulence  Mountain Waves  Volcanic Ashes






- Airport Elevation : 12 ft
- IATA code : BCN


LEBL - Barcelone

CURRENT METAR :
  • 220400Z 01008KT 9999 FEW015 FEW020TCU SCT045 11/09 Q1021 TEMPO SHRA

EXPIRED METARs :
  • 220330Z 36006KT 9999 FEW015 FEW020TCU SCT035 11/09 Q1021 TEMPO SHRA
  • 220300Z 01008KT 9999 FEW015 FEW020TCU BKN035 11/10 Q1021 NOSIG
  • 220230Z 01008KT 9999 FEW015 FEW020CB BKN035 11/09 Q1021 NOSIG
  • 220200Z 36008KT 9999 FEW015 FEW020CB BKN035 BKN045 11/09 Q1021 NOSIG
  • 220130Z 02012KT 9999 FEW015 FEW020CB SCT025 BKN045 11/10 Q1021 NOSIG

TAF AMD TAF LEBL
Valid from the 22 at 03:00 until the 23 at 00:00 UTC


220300Z 2203/2224 02010KT 6000 FEW012 BKN020 TX16/2213Z TN11/2206Z
BECMG 2208/2210 06018G28KT
PROB40
TEMPO 2203/2224 4000 RA BKN014 FEW020TCU



MET'MAP, your aeronautical weather chart ! - Copyright ORBIFLY December 2007 - Disclaimer

ORBIFLY MET'MAP TEAM :

Programming & Development : Alexandra Zaïnal
Concept & original design : Baudouin d'Aumeries
Assistance for programming : Marc-Olivier Méhu
Technical & hardware support : Manuel Goepfert

Contact : metmap@orbifly.com




SOURCES & CREDITS :

   NOAA